sensor_id;sensor_type;location;lat;lon;timestamp;pressure;altitude;pressure_sealevel;temperature
39959;BMP280;25639;53.634;9.880;2022-12-18T00:00:25;150359.06;;;-8.16
39959;BMP280;25639;53.634;9.880;2022-12-18T00:02:50;150453.44;;;-7.78
39959;BMP280;25639;53.634;9.880;2022-12-18T00:05:15;150413.13;;;-7.94
39959;BMP280;25639;53.634;9.880;2022-12-18T00:07:41;150370.41;;;-8.12
39959;BMP280;25639;53.634;9.880;2022-12-18T00:10:06;150335.19;;;-8.26
39959;BMP280;25639;53.634;9.880;2022-12-18T00:12:31;150337.69;;;-8.25
39959;BMP280;25639;53.634;9.880;2022-12-18T00:14:56;150403.09;;;-7.98
39959;BMP280;25639;53.634;9.880;2022-12-18T00:17:21;150439.56;;;-7.83
39959;BMP280;25639;53.634;9.880;2022-12-18T00:19:47;150445.88;;;-7.81
39959;BMP280;25639;53.634;9.880;2022-12-18T00:22:12;150493.69;;;-7.61
39959;BMP280;25639;53.634;9.880;2022-12-18T00:24:37;150438.31;;;-7.84
39959;BMP280;25639;53.634;9.880;2022-12-18T00:27:02;150418.16;;;-7.92
39959;BMP280;25639;53.634;9.880;2022-12-18T00:29:27;150396.81;;;-8.01
39959;BMP280;25639;53.634;9.880;2022-12-18T00:31:52;150382.94;;;-8.07
39959;BMP280;25639;53.634;9.880;2022-12-18T00:34:18;150366.63;;;-8.13
39959;BMP280;25639;53.634;9.880;2022-12-18T00:36:43;150340.22;;;-8.24
39959;BMP280;25639;53.634;9.880;2022-12-18T00:39:09;150300.00;;;-8.40
39959;BMP280;25639;53.634;9.880;2022-12-18T00:41:35;150228.34;;;-8.70
39959;BMP280;25639;53.634;9.880;2022-12-18T00:44:19;150209.50;;;-8.77
39959;BMP280;25639;53.634;9.880;2022-12-18T00:46:44;150204.50;;;-8.79
39959;BMP280;25639;53.634;9.880;2022-12-18T00:49:13;150190.66;;;-8.85
39959;BMP280;25639;53.634;9.880;2022-12-18T00:51:39;150195.69;;;-8.83
39959;BMP280;25639;53.634;9.880;2022-12-18T00:54:04;150200.72;;;-8.81
39959;BMP280;25639;53.634;9.880;2022-12-18T00:56:30;150195.69;;;-8.83
39959;BMP280;25639;53.634;9.880;2022-12-18T00:58:55;150191.91;;;-8.85
39959;BMP280;25639;53.634;9.880;2022-12-18T01:01:20;150195.69;;;-8.83
39959;BMP280;25639;53.634;9.880;2022-12-18T01:03:45;150160.50;;;-8.97
39959;BMP280;25639;53.634;9.880;2022-12-18T01:06:13;150156.72;;;-8.99
39959;BMP280;25639;53.634;9.880;2022-12-18T01:08:38;150131.56;;;-9.09
39959;BMP280;25639;53.634;9.880;2022-12-18T01:11:07;150113.97;;;-9.16
39959;BMP280;25639;53.634;9.880;2022-12-18T01:13:32;150083.81;;;-9.29
39959;BMP280;25639;53.634;9.880;2022-12-18T01:15:58;150088.84;;;-9.27
39959;BMP280;25639;53.634;9.880;2022-12-18T01:18:23;150134.09;;;-9.08
39959;BMP280;25639;53.634;9.880;2022-12-18T01:20:48;150152.94;;;-9.01
39959;BMP280;25639;53.634;9.880;2022-12-18T01:23:13;150176.81;;;-8.91
39959;BMP280;25639;53.634;9.880;2022-12-18T01:25:38;150130.34;;;-9.10
39959;BMP280;25639;53.634;9.880;2022-12-18T01:28:04;150124.03;;;-9.12
39959;BMP280;25639;53.634;9.880;2022-12-18T01:30:29;150106.44;;;-9.20
39959;BMP280;25639;53.634;9.880;2022-12-18T01:32:54;150098.94;;;-9.23
39959;BMP280;25639;53.634;9.880;2022-12-18T01:35:19;150122.78;;;-9.13
39959;BMP280;25639;53.634;9.880;2022-12-18T01:37:44;150096.41;;;-9.24
39959;BMP280;25639;53.634;9.880;2022-12-18T01:40:10;150095.16;;;-9.24
39959;BMP280;25639;53.634;9.880;2022-12-18T01:42:35;150090.13;;;-9.26
39959;BMP280;25639;53.634;9.880;2022-12-18T01:52:31;150033.59;;;-9.49
39959;BMP280;25639;53.634;9.880;2022-12-18T01:54:58;150021.03;;;-9.54
39959;BMP280;25639;53.634;9.880;2022-12-18T01:57:24;150023.50;;;-9.53
39959;BMP280;25639;53.634;9.880;2022-12-18T01:59:50;150010.94;;;-9.59
39959;BMP280;25639;53.634;9.880;2022-12-18T02:02:17;150023.50;;;-9.53
39959;BMP280;25639;53.634;9.880;2022-12-18T02:04:43;150013.47;;;-9.57
39959;BMP280;25639;53.634;9.880;2022-12-18T02:10:00;150012.22;;;-9.58
39959;BMP280;25639;53.634;9.880;2022-12-18T02:12:30;149999.66;;;-9.63
39959;BMP280;25639;53.634;9.880;2022-12-18T02:15:19;149987.09;;;-9.68
39959;BMP280;25639;53.634;9.880;2022-12-18T02:17:53;149989.63;;;-9.67
39959;BMP280;25639;53.634;9.880;2022-12-18T02:20:22;149989.63;;;-9.67
39959;BMP280;25639;53.634;9.880;2022-12-18T02:28:04;149983.31;;;-9.70
39959;BMP280;25639;53.634;9.880;2022-12-18T02:30:31;149966.97;;;-9.77
39959;BMP280;25639;53.634;9.880;2022-12-18T02:32:58;149964.50;;;-9.78
39959;BMP280;25639;53.634;9.880;2022-12-18T02:35:25;149934.34;;;-9.90
39959;BMP280;25639;53.634;9.880;2022-12-18T02:37:51;149872.84;;;-10.15
39959;BMP280;25639;53.634;9.880;2022-12-18T02:40:18;149857.75;;;-10.21
39959;BMP280;25639;53.634;9.880;2022-12-18T02:42:44;149859.03;;;-10.21
39959;BMP280;25639;53.634;9.880;2022-12-18T02:45:09;149840.16;;;-10.28
39959;BMP280;25639;53.634;9.880;2022-12-18T02:47:36;149796.28;;;-10.46
39959;BMP280;25639;53.634;9.880;2022-12-18T02:52:53;149811.38;;;-10.40
39959;BMP280;25639;53.634;9.880;2022-12-18T02:57:50;149782.47;;;-10.52
39959;BMP280;25639;53.634;9.880;2022-12-18T03:00:20;149803.81;;;-10.43
39959;BMP280;25639;53.634;9.880;2022-12-18T03:02:57;149848.94;;;-10.25
39959;BMP280;25639;53.634;9.880;2022-12-18T03:06:07;149879.09;;;-10.12
39959;BMP280;25639;53.634;9.880;2022-12-18T03:08:18;149877.84;;;-10.13
39959;BMP280;25639;53.634;9.880;2022-12-18T03:10:49;149874.06;;;-10.14
39959;BMP280;25639;53.634;9.880;2022-12-18T03:13:19;149870.31;;;-10.16
39959;BMP280;25639;53.634;9.880;2022-12-18T03:15:46;149872.84;;;-10.15
39959;BMP280;25639;53.634;9.880;2022-12-18T03:18:14;149859.03;;;-10.21
39959;BMP280;25639;53.634;9.880;2022-12-18T03:20:41;149885.38;;;-10.10
39959;BMP280;25639;53.634;9.880;2022-12-18T03:23:12;149877.84;;;-10.13
39959;BMP280;25639;53.634;9.880;2022-12-18T03:25:39;149871.59;;;-10.16
39959;BMP280;25639;53.634;9.880;2022-12-18T03:28:06;149884.09;;;-10.10
39959;BMP280;25639;53.634;9.880;2022-12-18T03:30:34;149908.00;;;-10.01
39959;BMP280;25639;53.634;9.880;2022-12-18T03:33:05;149934.34;;;-9.90
39959;BMP280;25639;53.634;9.880;2022-12-18T03:35:33;149931.81;;;-9.91
39959;BMP280;25639;53.634;9.880;2022-12-18T03:38:00;149993.34;;;-9.66
39959;BMP280;25639;53.634;9.880;2022-12-18T03:41:11;150005.94;;;-9.61
39959;BMP280;25639;53.634;9.880;2022-12-18T03:43:15;150039.84;;;-9.47
39959;BMP280;25639;53.634;9.880;2022-12-18T03:45:47;150017.25;;;-9.56
39959;BMP280;25639;53.634;9.880;2022-12-18T03:48:59;150016.00;;;-9.56
39959;BMP280;25639;53.634;9.880;2022-12-18T03:51:07;149985.84;;;-9.69
39959;BMP280;25639;53.634;9.880;2022-12-18T03:56:03;149978.31;;;-9.72
39959;BMP280;25639;53.634;9.880;2022-12-18T03:58:29;150027.28;;;-9.52
39959;BMP280;25639;53.634;9.880;2022-12-18T04:00:58;149989.63;;;-9.67
39959;BMP280;25639;53.634;9.880;2022-12-18T04:03:25;149988.34;;;-9.68
39959;BMP280;25639;53.634;9.880;2022-12-18T04:05:51;149980.84;;;-9.71
39959;BMP280;25639;53.634;9.880;2022-12-18T04:08:17;149975.78;;;-9.73
39959;BMP280;25639;53.634;9.880;2022-12-18T04:10:42;149960.72;;;-9.79
39959;BMP280;25639;53.634;9.880;2022-12-18T04:13:08;149959.47;;;-9.80
39959;BMP280;25639;53.634;9.880;2022-12-18T04:15:34;149994.66;;;-9.65
39959;BMP280;25639;53.634;9.880;2022-12-18T04:18:00;149993.34;;;-9.66
39959;BMP280;25639;53.634;9.880;2022-12-18T04:20:26;149984.56;;;-9.69
39959;BMP280;25639;53.634;9.880;2022-12-18T04:22:51;149988.34;;;-9.68
39959;BMP280;25639;53.634;9.880;2022-12-18T04:25:17;149994.66;;;-9.65
39959;BMP280;25639;53.634;9.880;2022-12-18T04:27:42;149982.09;;;-9.70
39959;BMP280;25639;53.634;9.880;2022-12-18T04:30:07;149972.06;;;-9.74
39959;BMP280;25639;53.634;9.880;2022-12-18T04:32:33;149964.50;;;-9.78
39959;BMP280;25639;53.634;9.880;2022-12-18T04:34:58;150019.72;;;-9.55
39959;BMP280;25639;53.634;9.880;2022-12-18T04:37:24;150029.81;;;-9.51
39959;BMP280;25639;53.634;9.880;2022-12-18T04:39:49;150063.75;;;-9.37
39959;BMP280;25639;53.634;9.880;2022-12-18T04:42:14;150038.63;;;-9.47
39959;BMP280;25639;53.634;9.880;2022-12-18T04:44:39;150009.69;;;-9.59
39959;BMP280;25639;53.634;9.880;2022-12-18T04:47:04;149978.31;;;-9.72
39959;BMP280;25639;53.634;9.880;2022-12-18T04:49:29;149959.47;;;-9.80
39959;BMP280;25639;53.634;9.880;2022-12-18T04:51:55;149945.69;;;-9.85
39959;BMP280;25639;53.634;9.880;2022-12-18T04:54:20;149913.00;;;-9.99
39959;BMP280;25639;53.634;9.880;2022-12-18T04:56:45;149910.47;;;-10.00
39959;BMP280;25639;53.634;9.880;2022-12-18T04:59:10;149984.56;;;-9.69
39959;BMP280;25639;53.634;9.880;2022-12-18T05:01:36;149984.56;;;-9.69
39959;BMP280;25639;53.634;9.880;2022-12-18T05:04:01;150002.16;;;-9.62
39959;BMP280;25639;53.634;9.880;2022-12-18T05:06:27;149974.53;;;-9.73
39959;BMP280;25639;53.634;9.880;2022-12-18T05:08:52;150003.44;;;-9.62
39959;BMP280;25639;53.634;9.880;2022-12-18T05:11:17;150018.50;;;-9.55
39959;BMP280;25639;53.634;9.880;2022-12-18T05:13:43;150066.22;;;-9.36
39959;BMP280;25639;53.634;9.880;2022-12-18T05:16:09;150044.88;;;-9.45
39959;BMP280;25639;53.634;9.880;2022-12-18T05:18:34;150073.78;;;-9.33
39959;BMP280;25639;53.634;9.880;2022-12-18T05:20:59;150036.06;;;-9.48
39959;BMP280;25639;53.634;9.880;2022-12-18T05:23:25;150039.84;;;-9.47
39959;BMP280;25639;53.634;9.880;2022-12-18T05:25:55;150026.03;;;-9.52
39959;BMP280;25639;53.634;9.880;2022-12-18T05:28:20;150066.22;;;-9.36
39959;BMP280;25639;53.634;9.880;2022-12-18T05:30:49;150082.56;;;-9.29
39959;BMP280;25639;53.634;9.880;2022-12-18T05:33:15;150140.38;;;-9.06
39959;BMP280;25639;53.634;9.880;2022-12-18T05:35:40;150161.75;;;-8.97
39959;BMP280;25639;53.634;9.880;2022-12-18T05:38:05;150189.38;;;-8.86
39959;BMP280;25639;53.634;9.880;2022-12-18T05:40:31;150186.88;;;-8.87
39959;BMP280;25639;53.634;9.880;2022-12-18T05:42:56;150196.94;;;-8.83
39959;BMP280;25639;53.634;9.880;2022-12-18T05:45:21;150184.34;;;-8.88
39959;BMP280;25639;53.634;9.880;2022-12-18T05:47:46;150217.06;;;-8.74
39959;BMP280;25639;53.634;9.880;2022-12-18T05:50:11;150225.88;;;-8.71
39959;BMP280;25639;53.634;9.880;2022-12-18T05:52:36;150238.38;;;-8.66
39959;BMP280;25639;53.634;9.880;2022-12-18T05:55:02;150267.31;;;-8.54
39959;BMP280;25639;53.634;9.880;2022-12-18T05:57:27;150273.59;;;-8.51
39959;BMP280;25639;53.634;9.880;2022-12-18T05:59:52;150302.47;;;-8.39
39959;BMP280;25639;53.634;9.880;2022-12-18T06:02:17;150287.47;;;-8.46
39959;BMP280;25639;53.634;9.880;2022-12-18T06:04:42;150266.09;;;-8.54
39959;BMP280;25639;53.634;9.880;2022-12-18T06:07:07;150262.31;;;-8.56
39959;BMP280;25639;53.634;9.880;2022-12-18T06:09:33;150279.91;;;-8.49
39959;BMP280;25639;53.634;9.880;2022-12-18T06:11:58;150263.53;;;-8.55
39959;BMP280;25639;53.634;9.880;2022-12-18T06:14:23;150242.16;;;-8.64
39959;BMP280;25639;53.634;9.880;2022-12-18T06:16:50;150228.34;;;-8.70
39959;BMP280;25639;53.634;9.880;2022-12-18T06:19:15;150224.56;;;-8.71
39959;BMP280;25639;53.634;9.880;2022-12-18T06:21:41;150206.97;;;-8.78
39959;BMP280;25639;53.634;9.880;2022-12-18T06:24:06;150229.59;;;-8.69
39959;BMP280;25639;53.634;9.880;2022-12-18T06:26:31;150178.09;;;-8.90
39959;BMP280;25639;53.634;9.880;2022-12-18T06:28:57;150219.56;;;-8.73
39959;BMP280;25639;53.634;9.880;2022-12-18T06:31:22;150243.47;;;-8.64
39959;BMP280;25639;53.634;9.880;2022-12-18T06:33:47;150235.91;;;-8.67
39959;BMP280;25639;53.634;9.880;2022-12-18T06:36:12;150238.38;;;-8.66
39959;BMP280;25639;53.634;9.880;2022-12-18T06:38:40;150263.53;;;-8.55
39959;BMP280;25639;53.634;9.880;2022-12-18T06:41:09;150253.50;;;-8.59
39959;BMP280;25639;53.634;9.880;2022-12-18T06:43:35;150245.94;;;-8.63
39959;BMP280;25639;53.634;9.880;2022-12-18T06:46:01;150279.91;;;-8.49
39959;BMP280;25639;53.634;9.880;2022-12-18T06:48:26;150278.66;;;-8.49
39959;BMP280;25639;53.634;9.880;2022-12-18T06:50:53;150266.09;;;-8.54
39959;BMP280;25639;53.634;9.880;2022-12-18T06:53:18;150235.91;;;-8.67
39959;BMP280;25639;53.634;9.880;2022-12-18T06:55:43;150254.75;;;-8.59
39959;BMP280;25639;53.634;9.880;2022-12-18T06:58:08;150286.16;;;-8.46
39959;BMP280;25639;53.634;9.880;2022-12-18T07:00:34;150273.59;;;-8.51
39959;BMP280;25639;53.634;9.880;2022-12-18T07:02:59;150281.16;;;-8.48
39959;BMP280;25639;53.634;9.880;2022-12-18T07:05:24;150291.19;;;-8.44
39959;BMP280;25639;53.634;9.880;2022-12-18T07:07:50;150283.69;;;-8.47
39959;BMP280;25639;53.634;9.880;2022-12-18T07:10:15;150311.28;;;-8.36
39959;BMP280;25639;53.634;9.880;2022-12-18T07:12:40;150277.38;;;-8.50
39959;BMP280;25639;53.634;9.880;2022-12-18T07:15:06;150317.59;;;-8.33
39959;BMP280;25639;53.634;9.880;2022-12-18T07:17:31;150313.81;;;-8.35
39959;BMP280;25639;53.634;9.880;2022-12-18T07:19:56;150328.88;;;-8.29
39959;BMP280;25639;53.634;9.880;2022-12-18T07:22:22;150341.47;;;-8.24
39959;BMP280;25639;53.634;9.880;2022-12-18T07:24:50;150354.03;;;-8.18
39959;BMP280;25639;53.634;9.880;2022-12-18T07:27:15;150331.41;;;-8.28
39959;BMP280;25639;53.634;9.880;2022-12-18T07:29:40;150344.00;;;-8.22
39959;BMP280;25639;53.634;9.880;2022-12-18T07:32:05;150344.00;;;-8.22
39959;BMP280;25639;53.634;9.880;2022-12-18T07:34:32;150349.03;;;-8.20
39959;BMP280;25639;53.634;9.880;2022-12-18T07:36:57;150328.88;;;-8.29
39959;BMP280;25639;53.634;9.880;2022-12-18T07:39:22;150341.47;;;-8.24
39959;BMP280;25639;53.634;9.880;2022-12-18T07:41:47;150355.28;;;-8.18
39959;BMP280;25639;53.634;9.880;2022-12-18T07:44:32;150375.44;;;-8.10
39959;BMP280;25639;53.634;9.880;2022-12-18T07:46:58;150396.81;;;-8.01
39959;BMP280;25639;53.634;9.880;2022-12-18T07:49:23;150403.09;;;-7.98
39959;BMP280;25639;53.634;9.880;2022-12-18T07:51:48;150420.69;;;-7.91
39959;BMP280;25639;53.634;9.880;2022-12-18T07:54:14;150393.03;;;-8.02
39959;BMP280;25639;53.634;9.880;2022-12-18T07:56:39;150440.84;;;-7.83
39959;BMP280;25639;53.634;9.880;2022-12-18T07:59:04;150421.94;;;-7.91
39959;BMP280;25639;53.634;9.880;2022-12-18T08:01:29;150434.53;;;-7.86
39959;BMP280;25639;53.634;9.880;2022-12-18T08:03:54;150421.94;;;-7.91
39959;BMP280;25639;53.634;9.880;2022-12-18T08:06:20;150416.91;;;-7.93
39959;BMP280;25639;53.634;9.880;2022-12-18T08:08:45;150473.53;;;-7.70
39959;BMP280;25639;53.634;9.880;2022-12-18T08:11:10;150476.06;;;-7.69
39959;BMP280;25639;53.634;9.880;2022-12-18T08:13:36;150465.97;;;-7.73
39959;BMP280;25639;53.634;9.880;2022-12-18T08:16:02;150484.88;;;-7.65
39959;BMP280;25639;53.634;9.880;2022-12-18T08:18:28;150479.84;;;-7.67
39959;BMP280;25639;53.634;9.880;2022-12-18T08:20:53;150479.84;;;-7.67
39959;BMP280;25639;53.634;9.880;2022-12-18T08:23:19;150481.09;;;-7.67
39959;BMP280;25639;53.634;9.880;2022-12-18T08:25:44;150521.34;;;-7.50
39959;BMP280;25639;53.634;9.880;2022-12-18T08:28:09;150504.97;;;-7.57
39959;BMP280;25639;53.634;9.880;2022-12-18T08:30:35;150493.69;;;-7.61
39959;BMP280;25639;53.634;9.880;2022-12-18T08:33:00;150511.28;;;-7.54
39959;BMP280;25639;53.634;9.880;2022-12-18T08:35:25;150520.09;;;-7.51
39959;BMP280;25639;53.634;9.880;2022-12-18T08:37:52;150488.66;;;-7.63
39959;BMP280;25639;53.634;9.880;2022-12-18T08:40:17;150515.06;;;-7.53
39959;BMP280;25639;53.634;9.880;2022-12-18T08:42:43;150533.94;;;-7.45
39959;BMP280;25639;53.634;9.880;2022-12-18T08:45:27;150584.25;;;-7.24
39959;BMP280;25639;53.634;9.880;2022-12-18T08:47:52;150544.00;;;-7.41
39959;BMP280;25639;53.634;9.880;2022-12-18T08:50:17;150567.94;;;-7.31
39959;BMP280;25639;53.634;9.880;2022-12-18T08:52:42;150605.66;;;-7.16
39959;BMP280;25639;53.634;9.880;2022-12-18T08:55:08;150642.19;;;-7.01
39959;BMP280;25639;53.634;9.880;2022-12-18T08:57:33;150656.03;;;-6.95
39959;BMP280;25639;53.634;9.880;2022-12-18T08:59:58;150664.84;;;-6.92
39959;BMP280;25639;53.634;9.880;2022-12-18T09:02:23;150681.16;;;-6.85
39959;BMP280;25639;53.634;9.880;2022-12-18T09:04:49;150681.16;;;-6.85
39959;BMP280;25639;53.634;9.880;2022-12-18T09:07:14;150688.75;;;-6.82
39959;BMP280;25639;53.634;9.880;2022-12-18T09:09:39;150693.78;;;-6.80
39959;BMP280;25639;53.634;9.880;2022-12-18T09:12:04;150731.56;;;-6.64
39959;BMP280;25639;53.634;9.880;2022-12-18T09:14:29;150744.16;;;-6.59
39959;BMP280;25639;53.634;9.880;2022-12-18T09:16:55;150756.75;;;-6.54
39959;BMP280;25639;53.634;9.880;2022-12-18T09:19:20;150785.69;;;-6.42
39959;BMP280;25639;53.634;9.880;2022-12-18T09:21:45;150773.09;;;-6.47
39959;BMP280;25639;53.634;9.880;2022-12-18T09:24:14;150814.69;;;-6.30
39959;BMP280;25639;53.634;9.880;2022-12-18T09:26:39;150839.88;;;-6.20
39959;BMP280;25639;53.634;9.880;2022-12-18T09:29:04;150799.53;;;-6.37
39959;BMP280;25639;53.634;9.880;2022-12-18T09:31:32;150783.22;;;-6.43
39959;BMP280;25639;53.634;9.880;2022-12-18T09:33:57;150826.03;;;-6.26
39959;BMP280;25639;53.634;9.880;2022-12-18T09:36:22;150852.50;;;-6.15
39959;BMP280;25639;53.634;9.880;2022-12-18T09:38:47;150872.63;;;-6.07
39959;BMP280;25639;53.634;9.880;2022-12-18T09:43:42;150881.44;;;-6.03
39959;BMP280;25639;53.634;9.880;2022-12-18T09:46:10;150880.19;;;-6.04
39959;BMP280;25639;53.634;9.880;2022-12-18T09:48:41;150906.59;;;-5.93
39959;BMP280;25639;53.634;9.880;2022-12-18T09:51:12;150938.09;;;-5.80
39959;BMP280;25639;53.634;9.880;2022-12-18T09:53:40;150887.75;;;-6.01
39959;BMP280;25639;53.634;9.880;2022-12-18T09:56:06;150915.41;;;-5.89
39959;BMP280;25639;53.634;9.880;2022-12-18T09:58:41;150949.44;;;-5.76
39959;BMP280;25639;53.634;9.880;2022-12-18T10:01:16;150998.59;;;-5.56
39959;BMP280;25639;53.634;9.880;2022-12-18T10:03:43;151033.88;;;-5.41
39959;BMP280;25639;53.634;9.880;2022-12-18T10:06:13;150992.25;;;-5.58
39959;BMP280;25639;53.634;9.880;2022-12-18T10:08:43;151017.47;;;-5.48
39959;BMP280;25639;53.634;9.880;2022-12-18T10:14:04;151017.47;;;-5.48
39959;BMP280;25639;53.634;9.880;2022-12-18T10:16:36;151026.31;;;-5.44
39959;BMP280;25639;53.634;9.880;2022-12-18T10:21:59;151075.47;;;-5.24
39959;BMP280;25639;53.634;9.880;2022-12-18T10:24:30;151067.94;;;-5.27
39959;BMP280;25639;53.634;9.880;2022-12-18T10:27:21;151093.09;;;-5.17
39959;BMP280;25639;53.634;9.880;2022-12-18T10:30:04;151123.38;;;-5.05
39959;BMP280;25639;53.634;9.880;2022-12-18T10:32:33;151129.69;;;-5.02
39959;BMP280;25639;53.634;9.880;2022-12-18T10:35:00;151149.84;;;-4.94
39959;BMP280;25639;53.634;9.880;2022-12-18T10:37:26;151168.78;;;-4.86
39959;BMP280;25639;53.634;9.880;2022-12-18T10:43:05;151167.50;;;-4.87
39959;BMP280;25639;53.634;9.880;2022-12-18T10:48:19;151195.28;;;-4.75
39959;BMP280;25639;53.634;9.880;2022-12-18T10:50:46;151230.59;;;-4.61
39959;BMP280;25639;53.634;9.880;2022-12-18T10:53:13;151236.88;;;-4.58
39959;BMP280;25639;53.634;9.880;2022-12-18T10:55:44;151275.97;;;-4.43
39959;BMP280;25639;53.634;9.880;2022-12-18T10:58:24;151269.69;;;-4.45
39959;BMP280;25639;53.634;9.880;2022-12-18T11:03:29;151265.91;;;-4.47
39959;BMP280;25639;53.634;9.880;2022-12-18T11:06:03;151298.69;;;-4.33
39959;BMP280;25639;53.634;9.880;2022-12-18T11:08:29;151306.25;;;-4.30
39959;BMP280;25639;53.634;9.880;2022-12-18T11:10:54;151308.75;;;-4.29
39959;BMP280;25639;53.634;9.880;2022-12-18T11:13:20;151294.88;;;-4.35
39959;BMP280;25639;53.634;9.880;2022-12-18T11:15:47;151335.31;;;-4.18
39959;BMP280;25639;53.634;9.880;2022-12-18T11:18:16;151325.19;;;-4.23
39959;BMP280;25639;53.634;9.880;2022-12-18T11:20:43;151340.34;;;-4.16
39959;BMP280;25639;53.634;9.880;2022-12-18T11:23:14;151360.50;;;-4.08
39959;BMP280;25639;53.634;9.880;2022-12-18T11:25:40;151379.47;;;-4.00
39959;BMP280;25639;53.634;9.880;2022-12-18T11:28:28;151340.34;;;-4.16
39959;BMP280;25639;53.634;9.880;2022-12-18T11:31:11;151356.72;;;-4.10
39959;BMP280;25639;53.634;9.880;2022-12-18T11:33:37;151359.25;;;-4.09
39959;BMP280;25639;53.634;9.880;2022-12-18T11:36:04;151321.38;;;-4.24
39959;BMP280;25639;53.634;9.880;2022-12-18T11:38:37;151344.13;;;-4.15
39959;BMP280;25639;53.634;9.880;2022-12-18T11:41:05;151339.03;;;-4.17
39959;BMP280;25639;53.634;9.880;2022-12-18T11:43:53;151369.34;;;-4.05
39959;BMP280;25639;53.634;9.880;2022-12-18T11:46:34;151381.97;;;-3.99
39959;BMP280;25639;53.634;9.880;2022-12-18T11:49:03;151336.53;;;-4.18
39959;BMP280;25639;53.634;9.880;2022-12-18T11:51:37;151351.66;;;-4.12
39959;BMP280;25639;53.634;9.880;2022-12-18T11:54:13;151383.22;;;-3.99
39959;BMP280;25639;53.634;9.880;2022-12-18T11:56:49;151358.00;;;-4.09
39959;BMP280;25639;53.634;9.880;2022-12-18T12:06:57;151381.97;;;-3.99
39959;BMP280;25639;53.634;9.880;2022-12-18T12:09:35;151402.16;;;-3.91
39959;BMP280;25639;53.634;9.880;2022-12-18T12:14:32;151402.16;;;-3.91
39959;BMP280;25639;53.634;9.880;2022-12-18T12:24:47;151416.03;;;-3.86
39959;BMP280;25639;53.634;9.880;2022-12-18T12:27:17;151438.75;;;-3.76
39959;BMP280;25639;53.634;9.880;2022-12-18T12:29:49;151438.75;;;-3.76
39959;BMP280;25639;53.634;9.880;2022-12-18T12:40:00;151451.38;;;-3.71
39959;BMP280;25639;53.634;9.880;2022-12-18T12:42:38;151522.06;;;-3.42
39959;BMP280;25639;53.634;9.880;2022-12-18T12:45:28;151499.34;;;-3.52
39959;BMP280;25639;53.634;9.880;2022-12-18T12:47:55;151472.84;;;-3.62
39959;BMP280;25639;53.634;9.880;2022-12-18T12:50:22;151479.13;;;-3.60
39959;BMP280;25639;53.634;9.880;2022-12-18T12:52:50;151479.13;;;-3.60
39959;BMP280;25639;53.634;9.880;2022-12-18T12:55:26;151523.31;;;-3.42
39959;BMP280;25639;53.634;9.880;2022-12-18T13:00:39;151499.34;;;-3.52
39959;BMP280;25639;53.634;9.880;2022-12-18T13:03:22;151517.03;;;-3.45
39959;BMP280;25639;53.634;9.880;2022-12-18T13:05:50;151487.97;;;-3.56
39959;BMP280;25639;53.634;9.880;2022-12-18T13:08:28;151487.97;;;-3.56
39959;BMP280;25639;53.634;9.880;2022-12-18T13:10:54;151501.84;;;-3.51
39959;BMP280;25639;53.634;9.880;2022-12-18T13:13:51;151523.31;;;-3.42
39959;BMP280;25639;53.634;9.880;2022-12-18T13:16:18;151518.28;;;-3.44
39959;BMP280;25639;53.634;9.880;2022-12-18T13:18:51;151474.09;;;-3.62
39959;BMP280;25639;53.634;9.880;2022-12-18T13:21:21;151496.81;;;-3.53
39959;BMP280;25639;53.634;9.880;2022-12-18T13:23:49;151472.84;;;-3.62
39959;BMP280;25639;53.634;9.880;2022-12-18T13:31:11;151485.47;;;-3.57
39959;BMP280;25639;53.634;9.880;2022-12-18T13:33:38;151472.84;;;-3.62
39959;BMP280;25639;53.634;9.880;2022-12-18T13:36:23;151422.34;;;-3.83
39959;BMP280;25639;53.634;9.880;2022-12-18T13:41:33;151398.38;;;-3.93
39959;BMP280;25639;53.634;9.880;2022-12-18T13:46:46;151422.34;;;-3.83
39959;BMP280;25639;53.634;9.880;2022-12-18T13:51:39;151359.25;;;-4.09
39959;BMP280;25639;53.634;9.880;2022-12-18T13:54:18;151364.28;;;-4.07
39959;BMP280;25639;53.634;9.880;2022-12-18T13:56:45;151344.13;;;-4.15
39959;BMP280;25639;53.634;9.880;2022-12-18T14:01:36;151349.16;;;-4.13
39959;BMP280;25639;53.634;9.880;2022-12-18T14:04:11;151344.13;;;-4.15
39959;BMP280;25639;53.634;9.880;2022-12-18T14:06:36;151303.72;;;-4.31
39959;BMP280;25639;53.634;9.880;2022-12-18T14:09:02;151272.19;;;-4.44
39959;BMP280;25639;53.634;9.880;2022-12-18T14:11:27;151283.56;;;-4.39
39959;BMP280;25639;53.634;9.880;2022-12-18T14:13:52;151250.75;;;-4.53
39959;BMP280;25639;53.634;9.880;2022-12-18T14:16:17;151277.22;;;-4.42
39959;BMP280;25639;53.634;9.880;2022-12-18T14:18:48;151249.50;;;-4.53
39959;BMP280;25639;53.634;9.880;2022-12-18T14:21:17;151244.47;;;-4.55
39959;BMP280;25639;53.634;9.880;2022-12-18T14:23:43;151230.59;;;-4.61
39959;BMP280;25639;53.634;9.880;2022-12-18T14:26:25;151236.88;;;-4.58
39959;BMP280;25639;53.634;9.880;2022-12-18T14:28:55;151239.41;;;-4.57
39959;BMP280;25639;53.634;9.880;2022-12-18T14:31:24;151224.25;;;-4.64
39959;BMP280;25639;53.634;9.880;2022-12-18T14:33:50;151193.97;;;-4.76
39959;BMP280;25639;53.634;9.880;2022-12-18T14:36:19;151163.72;;;-4.88
39959;BMP280;25639;53.634;9.880;2022-12-18T14:38:47;151181.38;;;-4.81
39959;BMP280;25639;53.634;9.880;2022-12-18T14:41:14;151176.31;;;-4.83
39959;BMP280;25639;53.634;9.880;2022-12-18T14:43:41;151157.44;;;-4.91
39959;BMP280;25639;53.634;9.880;2022-12-18T14:48:51;151171.28;;;-4.85
39959;BMP280;25639;53.634;9.880;2022-12-18T14:51:20;151134.72;;;-5.00
39959;BMP280;25639;53.634;9.880;2022-12-18T14:56:21;151137.22;;;-4.99
39959;BMP280;25639;53.634;9.880;2022-12-18T14:58:52;151119.56;;;-5.06
39959;BMP280;25639;53.634;9.880;2022-12-18T15:01:19;151096.91;;;-5.15
39959;BMP280;25639;53.634;9.880;2022-12-18T15:03:44;151095.66;;;-5.16
39959;BMP280;25639;53.634;9.880;2022-12-18T15:06:27;151084.28;;;-5.21
39959;BMP280;25639;53.634;9.880;2022-12-18T15:08:52;151093.09;;;-5.17
39959;BMP280;25639;53.634;9.880;2022-12-18T15:11:28;151079.25;;;-5.23
39959;BMP280;25639;53.634;9.880;2022-12-18T15:13:53;151078.00;;;-5.23
39959;BMP280;25639;53.634;9.880;2022-12-18T15:16:19;151070.41;;;-5.26
39959;BMP280;25639;53.634;9.880;2022-12-18T15:18:44;151085.56;;;-5.20
39959;BMP280;25639;53.634;9.880;2022-12-18T15:21:10;151051.53;;;-5.34
39959;BMP280;25639;53.634;9.880;2022-12-18T15:23:38;151065.38;;;-5.28
39959;BMP280;25639;53.634;9.880;2022-12-18T15:26:10;151047.75;;;-5.36
39959;BMP280;25639;53.634;9.880;2022-12-18T15:28:50;151074.22;;;-5.25